Time;durP1;ratioP1;P1;durP2;ratioP2;P2;SDS_P1;SDS_P2;PMS_P1;PMS_P2;Temp;Humidity;BMP_temperature;BMP_pressure;BME280_temperature;BME280_humidity;BME280_pressure;Samples;Min_cycle;Max_cycle;Signal;HPM_P1;HPM_P2
2022/06/30 00:00:41;;;;;;;;;;;;;;;18.54;100.00;97839.52;1687771;84;21054;-83
2022/06/30 00:03:07;;;;;;;;;;;;;;;18.54;100.00;97840.89;1696988;84;20193;-87
2022/06/30 00:05:33;;;;;;;;;;;;;;;18.49;100.00;97847.14;1697713;84;20192;-83
2022/06/30 00:07:59;;;;;;;;;;;;;;;18.48;100.00;97851.03;1697429;84;20169;-88
2022/06/30 00:10:25;;;;;;;;;;;;;;;18.42;100.00;97846.30;1697635;84;20762;-83
2022/06/30 00:12:50;;;;;;;;;;;;;;;18.41;100.00;97845.27;1676885;84;21793;-87
2022/06/30 00:15:16;;;;;;;;;;;;;;;18.36;100.00;97838.03;1688232;84;20289;-88
2022/06/30 00:17:42;;;;;;;;;;;;;;;18.35;100.00;97836.43;1690480;84;20197;-88
2022/06/30 00:20:08;;;;;;;;;;;;;;;18.36;100.00;97836.66;1691128;84;20177;-86
2022/06/30 00:22:34;;;;;;;;;;;;;;;18.38;100.00;97834.41;1697306;83;20196;-87
2022/06/30 00:25:00;;;;;;;;;;;;;;;18.39;100.00;97828.36;1697386;83;21086;-83
2022/06/30 00:27:26;;;;;;;;;;;;;;;18.38;100.00;97830.87;1697258;83;20199;-84
2022/06/30 00:29:52;;;;;;;;;;;;;;;18.36;100.00;97831.18;1696922;84;20219;-88
2022/06/30 00:32:17;;;;;;;;;;;;;;;18.35;100.00;97834.26;1700299;82;20186;-83
2022/06/30 00:34:43;;;;;;;;;;;;;;;18.33;100.00;97837.34;1693227;84;21369;-82
2022/06/30 00:37:09;;;;;;;;;;;;;;;18.37;100.00;97827.30;1673820;83;20617;-88
2022/06/30 00:39:35;;;;;;;;;;;;;;;18.46;100.00;97825.31;1697110;83;20251;-82
2022/06/30 00:42:01;;;;;;;;;;;;;;;18.49;100.00;97819.14;1697648;84;20237;-87
2022/06/30 00:44:27;;;;;;;;;;;;;;;18.50;100.00;97820.74;1693191;84;20153;-83
2022/06/30 00:46:53;;;;;;;;;;;;;;;18.49;100.00;97816.97;1697580;83;20200;-83
2022/06/30 00:49:23;;;;;;;;;;;;;;;18.47;100.00;97820.63;1697166;84;21780;-84
2022/06/30 00:51:47;;;;;;;;;;;;;;;18.47;100.00;97813.77;1696912;83;20174;-88
2022/06/30 00:54:13;;;;;;;;;;;;;;;18.42;100.00;97818.07;1697349;83;20247;-84
2022/06/30 00:56:43;;;;;;;;;;;;;;;18.38;100.00;97815.21;1696161;84;20173;-88
2022/06/30 00:59:09;;;;;;;;;;;;;;;18.35;100.00;97809.00;1713953;83;20173;-88
2022/06/30 01:01:36;;;;;;;;;;;;;;;18.38;100.00;97812.47;1675528;85;21079;-87
2022/06/30 01:04:01;;;;;;;;;;;;;;;18.37;100.00;97815.52;1697733;84;20207;-88
2022/06/30 01:06:28;;;;;;;;;;;;;;;18.36;100.00;97816.09;1665879;84;20560;-83
2022/06/30 01:08:53;;;;;;;;;;;;;;;18.36;100.00;97811.98;1668113;84;20303;-87
2022/06/30 01:14:03;;;;;;;;;;;;;;;18.36;100.00;97808.44;1689645;85;21182;-83
2022/06/30 01:16:29;;;;;;;;;;;;;;;18.37;100.00;97805.34;1689821;85;21471;-82
2022/06/30 01:18:54;;;;;;;;;;;;;;;18.39;100.00;97810.52;1655030;85;20497;-87
2022/06/30 01:21:20;;;;;;;;;;;;;;;18.38;100.00;97808.92;1689916;85;20616;-83
2022/06/30 01:23:46;;;;;;;;;;;;;;;18.40;100.00;97806.64;1689709;85;20230;-88
2022/06/30 01:26:12;;;;;;;;;;;;;;;18.40;100.00;97805.27;1689608;85;21158;-88
2022/06/30 01:28:38;;;;;;;;;;;;;;;18.42;100.00;97811.22;1689542;84;20194;-83
2022/06/30 01:31:03;;;;;;;;;;;;;;;18.43;100.00;97803.22;1689774;85;20185;-83
2022/06/30 01:33:29;;;;;;;;;;;;;;;18.45;100.00;97811.91;1689565;83;20199;-87
2022/06/30 01:35:56;;;;;;;;;;;;;;;18.44;100.00;97812.48;1688072;84;20208;-87
2022/06/30 01:38:22;;;;;;;;;;;;;;;18.33;100.00;97803.06;1686292;84;21936;-83
2022/06/30 01:40:48;;;;;;;;;;;;;;;18.37;100.00;97816.89;1688695;85;20417;-85
2022/06/30 01:43:14;;;;;;;;;;;;;;;18.37;100.00;97814.15;1689724;82;20439;-88
2022/06/30 01:45:40;;;;;;;;;;;;;;;18.35;100.00;97809.58;1688358;84;20648;-87
2022/06/30 01:48:07;;;;;;;;;;;;;;;18.34;100.00;97815.63;1689660;83;20212;-82
2022/06/30 01:50:32;;;;;;;;;;;;;;;18.33;100.00;97814.03;1689635;85;21299;-83
2022/06/30 01:52:58;;;;;;;;;;;;;;;18.31;100.00;97803.97;1667424;85;20276;-83
2022/06/30 01:55:24;;;;;;;;;;;;;;;18.30;100.00;97803.73;1660765;84;20252;-87
2022/06/30 01:57:50;;;;;;;;;;;;;;;18.26;100.00;97798.10;1678919;84;20190;-83
2022/06/30 02:00:23;;;;;;;;;;;;;;;18.23;100.00;97796.05;1684673;84;20258;-83
2022/06/30 02:02:49;;;;;;;;;;;;;;;18.22;100.00;97793.07;1688364;85;21061;-87
2022/06/30 02:05:15;;;;;;;;;;;;;;;18.21;100.00;97795.58;1685732;84;21420;-87
2022/06/30 02:07:41;;;;;;;;;;;;;;;18.19;100.00;97787.44;1689669;83;20196;-83
2022/06/30 02:10:09;;;;;;;;;;;;;;;18.18;100.00;97785.84;1689716;84;20404;-83
2022/06/30 02:12:47;;;;;;;;;;;;;;;18.17;100.00;97780.92;1689673;84;20175;-87
2022/06/30 02:15:24;;;;;;;;;;;;;;;18.19;100.00;97788.80;1680434;85;20960;-83
2022/06/30 02:17:51;;;;;;;;;;;;;;;18.17;100.00;97779.55;1679030;83;20154;-88
2022/06/30 02:20:21;;;;;;;;;;;;;;;18.20;100.00;97787.12;1689629;85;20181;-83
2022/06/30 02:22:44;;;;;;;;;;;;;;;18.18;100.00;97780.35;1690046;84;20218;-85
2022/06/30 02:25:10;;;;;;;;;;;;;;;18.16;100.00;97784.80;1677899;83;20267;-87
2022/06/30 02:27:36;;;;;;;;;;;;;;;18.15;100.00;97780.46;1689642;85;21014;-83
2022/06/30 02:30:02;;;;;;;;;;;;;;;18.14;100.00;97784.34;1678931;85;20208;-83
2022/06/30 02:32:28;;;;;;;;;;;;;;;18.13;100.00;97781.38;1674590;83;20181;-88
2022/06/30 02:34:55;;;;;;;;;;;;;;;18.10;100.00;97783.39;1689022;84;20206;-87
2022/06/30 02:37:21;;;;;;;;;;;;;;;18.06;100.00;97787.95;1689721;85;20164;-87
2022/06/30 02:39:47;;;;;;;;;;;;;;;18.03;100.00;97788.60;1689538;85;21023;-82
2022/06/30 02:42:13;;;;;;;;;;;;;;;18.01;100.00;97793.05;1689886;85;20213;-83
2022/06/30 02:44:39;;;;;;;;;;;;;;;17.97;100.00;97782.53;1691038;84;20744;-82
2022/06/30 02:47:05;;;;;;;;;;;;;;;17.94;100.00;97783.75;1687856;84;20567;-87
2022/06/30 02:49:30;;;;;;;;;;;;;;;17.92;100.00;97785.45;1686486;85;20257;-88
2022/06/30 02:51:56;;;;;;;;;;;;;;;17.91;100.00;97789.91;1689962;85;21804;-83
2022/06/30 02:54:22;;;;;;;;;;;;;;;17.90;100.00;97788.30;1689563;84;20333;-83
2022/06/30 02:56:49;;;;;;;;;;;;;;;17.89;100.00;97794.36;1689294;83;20228;-83
2022/06/30 02:59:16;;;;;;;;;;;;;;;17.90;100.00;97795.95;1688052;85;20164;-87
2022/06/30 03:01:42;;;;;;;;;;;;;;;17.90;100.00;97801.44;1688459;85;20199;-83
2022/06/30 03:04:07;;;;;;;;;;;;;;;17.88;100.00;97801.55;1688946;85;21771;-88
2022/06/30 03:06:33;;;;;;;;;;;;;;;17.88;100.00;97802.92;1660079;85;20759;-83
2022/06/30 03:08:59;;;;;;;;;;;;;;;17.84;100.00;97806.87;1637510;86;20539;-86
2022/06/30 03:11:25;;;;;;;;;;;;;;;17.81;100.00;97806.75;1688883;84;20572;-87
2022/06/30 03:13:51;;;;;;;;;;;;;;;17.79;100.00;97802.97;1689515;83;20530;-82
2022/06/30 03:16:17;;;;;;;;;;;;;;;17.81;100.00;97801.27;1689833;84;21083;-83
2022/06/30 03:18:43;;;;;;;;;;;;;;;17.86;100.00;97814.76;1689572;83;20247;-88
2022/06/30 03:21:09;;;;;;;;;;;;;;;17.93;100.00;97807.62;1689678;85;20194;-83
2022/06/30 03:23:35;;;;;;;;;;;;;;;17.94;100.00;97807.05;1659741;84;20212;-83
2022/06/30 03:26:00;;;;;;;;;;;;;;;17.98;100.00;97803.89;1683667;85;20211;-82
2022/06/30 03:28:26;;;;;;;;;;;;;;;18.04;100.00;97810.79;1689523;85;21071;-87
2022/06/30 03:30:52;;;;;;;;;;;;;;;18.10;100.00;97814.13;1689793;85;20175;-87
2022/06/30 03:33:18;;;;;;;;;;;;;;;18.15;100.00;97807.88;1689516;84;20721;-87
2022/06/30 03:35:44;;;;;;;;;;;;;;;18.15;100.00;97814.73;1688098;84;20198;-83
2022/06/30 03:38:10;;;;;;;;;;;;;;;18.15;100.00;97820.22;1689608;84;20300;-83
2022/06/30 03:40:36;;;;;;;;;;;;;;;18.18;100.00;97822.85;1687819;85;20765;-87
2022/06/30 03:43:02;;;;;;;;;;;;;;;18.21;100.00;97825.75;1688592;85;20198;-83
2022/06/30 03:45:28;;;;;;;;;;;;;;;18.26;100.00;97824.73;1656098;85;20276;-83
2022/06/30 03:47:53;;;;;;;;;;;;;;;18.29;100.00;97823.52;1689692;85;20514;-83
2022/06/30 03:50:19;;;;;;;;;;;;;;;18.35;100.00;97824.09;1685393;84;20213;-88
2022/06/30 03:52:45;;;;;;;;;;;;;;;18.42;100.00;97827.67;1689566;83;21161;-83
2022/06/30 03:55:11;;;;;;;;;;;;;;;18.48;100.00;97831.83;1689019;85;20184;-82
2022/06/30 03:57:37;;;;;;;;;;;;;;;18.50;100.00;97837.77;1689692;83;20212;-86
2022/06/30 04:00:03;;;;;;;;;;;;;;;18.50;100.00;97833.09;1689454;85;20658;-82
2022/06/30 04:02:29;;;;;;;;;;;;;;;18.53;100.00;97840.64;1689421;83;20179;-87
2022/06/30 04:04:55;;;;;;;;;;;;;;;18.59;100.00;97836.55;1689176;85;21164;-83
2022/06/30 04:07:21;;;;;;;;;;;;;;;18.66;100.00;97835.25;1689649;85;20261;-88
2022/06/30 04:09:46;;;;;;;;;;;;;;;18.72;100.00;97839.41;1685579;84;20217;-87
2022/06/30 04:12:12;;;;;;;;;;;;;;;18.74;100.00;97837.11;1677255;84;20283;-87
2022/06/30 04:14:38;;;;;;;;;;;;;;;18.81;100.00;97832.69;1676754;84;20289;-83
2022/06/30 04:17:04;;;;;;;;;;;;;;;18.93;100.00;97835.23;1678975;85;21045;-83
2022/06/30 04:19:30;;;;;;;;;;;;;;;18.97;100.00;97847.12;1664183;84;20142;-83
2022/06/30 04:21:56;;;;;;;;;;;;;;;19.09;100.00;97843.86;1667019;84;20185;-87
2022/06/30 04:24:22;;;;;;;;;;;;;;;19.16;100.00;97844.11;1688011;83;20166;-88
2022/06/30 04:26:48;;;;;;;;;;;;;;;19.29;100.00;97848.23;1688816;85;20138;-88
2022/06/30 04:29:14;;;;;;;;;;;;;;;19.37;100.00;97847.34;1685967;85;21119;-83
2022/06/30 04:34:24;;;;;;;;;;;;;;;19.48;100.00;97843.56;1689659;85;20199;-83
2022/06/30 04:36:50;;;;;;;;;;;;;;;19.58;100.00;97844.55;1689789;85;20245;-82
2022/06/30 04:39:16;;;;;;;;;;;;;;;19.66;100.00;97847.77;1689808;84;20186;-87
2022/06/30 04:41:42;;;;;;;;;;;;;;;19.78;100.00;97845.58;1684109;85;21097;-88
2022/06/30 04:44:07;;;;;;;;;;;;;;;19.85;100.00;97847.18;1658498;85;20395;-83
2022/06/30 04:46:33;;;;;;;;;;;;;;;19.97;100.00;97847.95;1683820;84;20269;-88
2022/06/30 04:48:59;;;;;;;;;;;;;;;20.05;99.50;97849.56;1690000;85;20158;-83
2022/06/30 04:51:25;;;;;;;;;;;;;;;20.14;99.30;97848.86;1689827;84;20174;-83
2022/06/30 04:53:51;;;;;;;;;;;;;;;20.28;99.53;97858.94;1689716;83;21020;-88
2022/06/30 04:56:17;;;;;;;;;;;;;;;20.47;99.48;97851.45;1689755;84;20197;-88
2022/06/30 04:58:44;;;;;;;;;;;;;;;20.65;98.10;97847.27;1663400;85;20173;-83
2022/06/30 05:01:10;;;;;;;;;;;;;;;20.78;97.97;97851.59;1664783;85;20146;-88
2022/06/30 05:03:36;;;;;;;;;;;;;;;20.83;96.91;97851.90;1690440;83;20195;-83
2022/06/30 05:06:03;;;;;;;;;;;;;;;20.94;96.87;97848.09;1695845;84;21155;-83
2022/06/30 05:08:28;;;;;;;;;;;;;;;21.04;96.45;97859.97;1695011;84;20166;-83
2022/06/30 05:10:54;;;;;;;;;;;;;;;21.11;95.63;97851.32;1702639;83;20196;-83
2022/06/30 05:13:20;;;;;;;;;;;;;;;21.27;95.25;97844.45;1693403;83;20342;-88
2022/06/30 05:15:46;;;;;;;;;;;;;;;21.29;95.01;97841.38;1687535;84;20283;-82
2022/06/30 05:18:12;;;;;;;;;;;;;;;21.46;95.41;97842.41;1689220;83;21908;-83
2022/06/30 05:20:38;;;;;;;;;;;;;;;21.56;94.53;97845.20;1708722;83;20602;-83
2022/06/30 05:23:04;;;;;;;;;;;;;;;21.67;93.78;97842.92;1675085;84;20742;-83
2022/06/30 05:28:14;;;;;;;;;;;;;;;21.78;93.29;97825.83;1697697;84;20156;-88
2022/06/30 05:30:41;;;;;;;;;;;;;;;21.94;92.69;97823.85;1709078;83;21774;-87
2022/06/30 05:33:08;;;;;;;;;;;;;;;22.06;93.29;97821.00;1679736;85;20164;-88
2022/06/30 05:35:33;;;;;;;;;;;;;;;22.23;92.86;97817.06;1653765;86;20174;-83
2022/06/30 05:38:00;;;;;;;;;;;;;;;22.42;92.35;97819.04;1677564;84;20198;-84
2022/06/30 05:40:26;;;;;;;;;;;;;;;22.51;92.26;97824.56;1705375;83;20456;-83
2022/06/30 05:42:52;;;;;;;;;;;;;;;22.65;91.39;97835.11;1709623;84;20593;-83
2022/06/30 05:45:18;;;;;;;;;;;;;;;22.81;91.49;97838.56;1698403;83;20227;-87
2022/06/30 05:47:50;;;;;;;;;;;;;;;22.80;90.39;97832.83;1674666;83;20267;-83
2022/06/30 05:50:19;;;;;;;;;;;;;;;22.87;90.49;97831.41;1676807;85;20530;-84
2022/06/30 05:52:45;;;;;;;;;;;;;;;23.03;90.21;97823.25;1680307;85;20171;-84
2022/06/30 05:55:11;;;;;;;;;;;;;;;23.15;89.48;97822.85;1660666;85;21045;-84
2022/06/30 05:57:54;;;;;;;;;;;;;;;23.35;89.23;97822.45;1684948;83;20202;-83
2022/06/30 06:00:20;;;;;;;;;;;;;;;23.54;86.61;97825.73;1686190;84;20186;-88
2022/06/30 06:02:46;;;;;;;;;;;;;;;23.82;86.86;97825.42;1688413;83;20225;-83
2022/06/30 06:05:13;;;;;;;;;;;;;;;24.01;85.89;97823.13;1684374;83;20197;-83
2022/06/30 06:07:38;;;;;;;;;;;;;;;24.20;85.77;97825.00;1707956;82;20994;-83
2022/06/30 06:10:05;;;;;;;;;;;;;;;24.28;85.91;97825.31;1681213;84;20255;-83
2022/06/30 06:12:31;;;;;;;;;;;;;;;24.25;84.85;97832.97;1670717;84;20218;-83
2022/06/30 06:14:57;;;;;;;;;;;;;;;24.25;84.92;97832.17;1704165;82;20175;-83
2022/06/30 06:17:22;;;;;;;;;;;;;;;24.36;85.29;97827.63;1704579;82;20244;-87
2022/06/30 06:19:48;;;;;;;;;;;;;;;24.58;84.93;97827.30;1710390;82;21069;-88
2022/06/30 06:22:14;;;;;;;;;;;;;;;24.62;82.36;97828.95;1680684;82;20145;-87
2022/06/30 06:24:40;;;;;;;;;;;;;;;24.80;82.95;97820.86;1711085;82;20219;-88
2022/06/30 06:27:06;;;;;;;;;;;;;;;24.85;82.36;97830.20;1682573;84;20162;-87
2022/06/30 06:29:31;;;;;;;;;;;;;;;24.93;81.90;97829.11;1681281;85;20379;-88
2022/06/30 06:31:57;;;;;;;;;;;;;;;24.97;82.06;97829.17;1672041;83;20863;-90
2022/06/30 06:34:23;;;;;;;;;;;;;;;25.03;81.35;97831.81;1667654;84;20222;-89
2022/06/30 06:36:49;;;;;;;;;;;;;;;25.24;82.13;97831.26;1667579;83;20209;-87
2022/06/30 06:39:15;;;;;;;;;;;;;;;25.38;81.23;97827.25;1690018;83;20241;-89
2022/06/30 06:41:41;;;;;;;;;;;;;;;25.48;81.28;97827.93;1685405;83;20203;-89
2022/06/30 06:44:06;;;;;;;;;;;;;;;25.65;81.14;97831.24;1686306;84;21045;-83
2022/06/30 06:46:32;;;;;;;;;;;;;;;25.85;80.94;97829.84;1686808;83;21263;-83
2022/06/30 06:49:00;;;;;;;;;;;;;;;25.87;80.94;97819.94;1687763;83;20820;-83
2022/06/30 06:51:26;;;;;;;;;;;;;;;26.07;80.56;97823.27;1661880;84;20268;-83
2022/06/30 06:53:52;;;;;;;;;;;;;;;26.10;77.78;97824.46;1688373;83;20176;-83
2022/06/30 06:56:18;;;;;;;;;;;;;;;26.04;76.60;97824.02;1686754;83;21023;-83
2022/06/30 06:58:44;;;;;;;;;;;;;;;26.00;76.89;97825.98;1684548;83;20156;-83
2022/06/30 07:01:10;;;;;;;;;;;;;;;26.21;76.20;97823.93;1681033;84;20229;-83
2022/06/30 07:03:36;;;;;;;;;;;;;;;26.33;76.45;97826.40;1684363;84;20162;-83
2022/06/30 07:06:02;;;;;;;;;;;;;;;26.56;77.10;97819.18;1681836;83;20171;-83
2022/06/30 07:08:28;;;;;;;;;;;;;;;26.82;75.65;97828.41;1686684;83;21214;-83
2022/06/30 07:10:56;;;;;;;;;;;;;;;27.04;76.05;97821.77;1686970;83;20185;-83
2022/06/30 07:13:21;;;;;;;;;;;;;;;27.23;73.65;97826.18;1691651;83;20218;-83
2022/06/30 07:15:47;;;;;;;;;;;;;;;27.29;75.02;97819.64;1686734;83;20169;-83
2022/06/30 07:18:12;;;;;;;;;;;;;;;27.44;72.54;97820.66;1685693;83;20178;-84
2022/06/30 07:20:38;;;;;;;;;;;;;;;27.57;73.13;97815.48;1684524;83;21777;-84
2022/06/30 07:23:04;;;;;;;;;;;;;;;27.85;72.43;97824.45;1686758;83;20281;-84
2022/06/30 07:25:30;;;;;;;;;;;;;;;28.16;71.68;97817.86;1688001;83;20197;-84
2022/06/30 07:27:56;;;;;;;;;;;;;;;28.40;71.03;97816.25;1685863;84;20266;-84
2022/06/30 07:30:22;;;;;;;;;;;;;;;28.47;61.48;97818.41;1686453;84;20218;-84
2022/06/30 07:32:47;;;;;;;;;;;;;;;28.73;67.43;97803.78;1704210;82;21915;-84
2022/06/30 07:35:14;;;;;;;;;;;;;;;28.97;65.93;97799.29;1694782;84;20269;-84
2022/06/30 07:37:40;;;;;;;;;;;;;;;29.11;61.60;97793.64;1689367;84;20225;-84
2022/06/30 07:40:07;;;;;;;;;;;;;;;29.21;61.48;97792.77;1665389;83;20169;-84
2022/06/30 07:42:32;;;;;;;;;;;;;;;29.56;60.86;97798.72;1691887;83;20698;-84
2022/06/30 07:44:58;;;;;;;;;;;;;;;29.68;60.80;97796.05;1693358;84;20845;-84
2022/06/30 07:47:24;;;;;;;;;;;;;;;29.97;61.55;97801.55;1693711;83;20229;-84
2022/06/30 07:49:50;;;;;;;;;;;;;;;30.16;58.49;97796.60;1693340;83;20269;-84
2022/06/30 07:52:16;;;;;;;;;;;;;;;30.27;60.76;97800.09;1694501;83;20183;-84
2022/06/30 07:54:42;;;;;;;;;;;;;;;30.41;58.71;97801.92;1692801;84;20177;-84
2022/06/30 07:57:07;;;;;;;;;;;;;;;30.59;60.50;97804.72;1693285;83;21084;-84
2022/06/30 07:59:33;;;;;;;;;;;;;;;30.72;58.55;97806.98;1692133;84;20269;-84
2022/06/30 08:02:00;;;;;;;;;;;;;;;30.97;56.10;97802.46;1692009;83;20185;-84
2022/06/30 08:04:26;;;;;;;;;;;;;;;31.44;57.62;97805.58;1694175;84;20660;-84
2022/06/30 08:06:52;;;;;;;;;;;;;;;31.87;52.52;97798.51;1691973;83;20169;-84
2022/06/30 08:09:18;;;;;;;;;;;;;;;32.13;52.96;97796.84;1689171;83;21157;-84
2022/06/30 08:11:44;;;;;;;;;;;;;;;32.45;51.38;97803.27;1690297;82;20194;-85
2022/06/30 08:14:09;;;;;;;;;;;;;;;32.33;50.22;97807.52;1690739;83;20221;-85
2022/06/30 08:16:35;;;;;;;;;;;;;;;32.91;53.95;97807.19;1694881;83;20169;-85
2022/06/30 08:19:02;;;;;;;;;;;;;;;33.31;52.21;97809.27;1692546;82;20795;-90
2022/06/30 08:21:29;;;;;;;;;;;;;;;33.15;49.45;97803.63;1694313;83;21034;-91
2022/06/30 08:23:55;;;;;;;;;;;;;;;33.43;50.68;97805.03;1706086;81;20497;-90
2022/06/30 08:26:20;;;;;;;;;;;;;;;33.69;48.50;97809.60;1678795;84;20194;-89
2022/06/30 08:28:46;;;;;;;;;;;;;;;34.13;51.60;97803.09;1676734;84;20754;-90
2022/06/30 08:31:12;;;;;;;;;;;;;;;34.70;50.63;97806.55;1689641;83;20158;-90
2022/06/30 08:33:38;;;;;;;;;;;;;;;34.77;47.17;97802.71;1694894;83;21026;-86
2022/06/30 08:36:05;;;;;;;;;;;;;;;34.75;47.24;97801.75;1692892;84;20205;-85
2022/06/30 08:38:30;;;;;;;;;;;;;;;34.90;46.98;97798.56;1670842;84;20204;-85
2022/06/30 08:43:42;;;;;;;;;;;;;;;34.53;44.97;97792.99;1694894;84;20245;-85
2022/06/30 08:46:07;;;;;;;;;;;;;;;34.84;44.25;97788.44;1694664;83;21070;-85
2022/06/30 08:48:33;;;;;;;;;;;;;;;35.31;44.99;97791.45;1693468;83;20189;-85
2022/06/30 08:51:06;;;;;;;;;;;;;;;35.86;44.07;97789.88;1693445;83;20872;-85
2022/06/30 08:53:44;;;;;;;;;;;;;;;36.50;44.56;97790.50;1687998;83;20822;-85
2022/06/30 08:56:10;;;;;;;;;;;;;;;36.31;41.91;97792.96;1691648;84;20143;-85
2022/06/30 08:58:36;;;;;;;;;;;;;;;36.77;41.55;97796.95;1691844;83;21143;-85
2022/06/30 09:01:02;;;;;;;;;;;;;;;36.78;39.88;97792.88;1693923;84;20245;-85
2022/06/30 09:03:28;;;;;;;;;;;;;;;36.82;38.99;97796.96;1697721;83;20146;-85
2022/06/30 09:05:55;;;;;;;;;;;;;;;37.05;40.28;97797.92;1695783;82;20245;-85
2022/06/30 09:08:21;;;;;;;;;;;;;;;37.15;39.64;97802.35;1691901;83;20167;-86
2022/06/30 09:10:49;;;;;;;;;;;;;;;37.18;38.53;97795.80;1695168;83;21075;-85
2022/06/30 09:13:15;;;;;;;;;;;;;;;37.44;38.83;97789.97;1666316;84;20221;-85
2022/06/30 09:15:41;;;;;;;;;;;;;;;37.41;37.27;97783.19;1696735;83;20269;-85
2022/06/30 09:18:06;;;;;;;;;;;;;;;37.89;37.99;97787.91;1694011;83;20170;-85
2022/06/30 09:20:37;;;;;;;;;;;;;;;37.91;38.72;97781.77;1690502;83;20196;-86
2022/06/30 09:23:26;;;;;;;;;;;;;;;37.79;36.81;97782.08;1691151;83;21148;-86
2022/06/30 09:25:55;;;;;;;;;;;;;;;37.18;37.69;97781.68;1695561;83;20493;-85
2022/06/30 09:28:44;;;;;;;;;;;;;;;37.60;37.61;97786.06;1700669;83;20267;-85
2022/06/30 09:31:10;;;;;;;;;;;;;;;38.31;38.18;97776.02;1682546;83;21003;-86
2022/06/30 09:33:36;;;;;;;;;;;;;;;39.02;37.99;97765.69;1710623;82;20159;-86
2022/06/30 09:36:27;;;;;;;;;;;;;;;39.45;37.51;97765.05;1705906;82;21137;-86
2022/06/30 09:39:04;;;;;;;;;;;;;;;39.61;35.97;97764.69;1693070;83;20317;-86
2022/06/30 09:41:31;;;;;;;;;;;;;;;39.35;36.35;97760.70;1694422;84;20175;-89
2022/06/30 09:43:57;;;;;;;;;;;;;;;39.36;33.97;97755.97;1695282;83;20506;-91
2022/06/30 09:46:22;;;;;;;;;;;;;;;39.92;33.96;97753.63;1690677;84;20237;-91
2022/06/30 09:48:48;;;;;;;;;;;;;;;40.13;34.31;97756.78;1692710;83;21154;-92
2022/06/30 09:51:14;;;;;;;;;;;;;;;40.55;35.01;97748.08;1695306;84;20203;-91
2022/06/30 09:53:40;;;;;;;;;;;;;;;40.57;32.93;97747.58;1689196;83;20185;-91
2022/06/30 09:56:12;;;;;;;;;;;;;;;40.96;34.58;97740.42;1693890;83;20250;-91
2022/06/30 09:58:40;;;;;;;;;;;;;;;41.29;32.61;97743.82;1693985;83;20526;-90
2022/06/30 10:01:05;;;;;;;;;;;;;;;41.53;33.67;97740.78;1696895;83;21215;-91
2022/06/30 10:03:31;;;;;;;;;;;;;;;41.44;30.71;97739.49;1695510;83;20859;-91
2022/06/30 10:06:11;;;;;;;;;;;;;;;41.68;32.50;97730.78;1695080;83;20225;-90
2022/06/30 10:08:37;;;;;;;;;;;;;;;42.15;32.65;97738.80;1696906;83;20276;-91
2022/06/30 10:11:03;;;;;;;;;;;;;;;42.07;30.03;97729.11;1693177;83;20193;-91
2022/06/30 10:13:29;;;;;;;;;;;;;;;41.95;30.05;97727.53;1692682;83;21096;-91
2022/06/30 10:15:55;;;;;;;;;;;;;;;42.36;31.92;97728.16;1694512;83;20199;-91
2022/06/30 10:18:27;;;;;;;;;;;;;;;41.59;29.69;97727.44;1690459;83;20443;-90
2022/06/30 10:20:53;;;;;;;;;;;;;;;41.71;29.24;97723.38;1693993;84;20288;-91
2022/06/30 10:23:22;;;;;;;;;;;;;;;41.83;29.76;97724.42;1690693;83;20230;-91
2022/06/30 10:25:48;;;;;;;;;;;;;;;41.29;29.42;97720.30;1694808;83;21070;-91
2022/06/30 10:28:19;;;;;;;;;;;;;;;39.94;31.83;97718.47;1694716;83;20194;-89
2022/06/30 10:31:15;;;;;;;;;;;;;;;38.07;34.16;97717.22;1681102;83;20275;-90
2022/06/30 10:34:14;;;;;;;;;;;;;;;36.40;36.51;97719.73;1690838;83;20557;-92
2022/06/30 10:36:43;;;;;;;;;;;;;;;35.64;38.30;97713.75;1694573;83;20244;-90
2022/06/30 10:39:31;;;;;;;;;;;;;;;34.47;40.19;97711.18;1697848;83;21055;-89
2022/06/30 10:41:56;;;;;;;;;;;;;;;34.18;40.17;97707.77;1691484;84;20604;-90
2022/06/30 10:44:23;;;;;;;;;;;;;;;34.15;39.95;97707.23;1691264;83;20221;-91
2022/06/30 10:46:57;;;;;;;;;;;;;;;36.13;37.08;97710.42;1694985;83;20449;-86
2022/06/30 10:49:22;;;;;;;;;;;;;;;36.81;36.58;97710.72;1693247;83;20183;-86
2022/06/30 10:51:47;;;;;;;;;;;;;;;36.68;36.91;97711.61;1692870;83;21118;-86
2022/06/30 10:54:29;;;;;;;;;;;;;;;36.73;36.45;97707.38;1693252;84;20179;-86
2022/06/30 10:56:55;;;;;;;;;;;;;;;37.38;34.21;97711.31;1688292;83;20173;-86
2022/06/30 10:59:34;;;;;;;;;;;;;;;36.38;35.97;97699.04;1694281;83;20190;-86
2022/06/30 11:02:20;;;;;;;;;;;;;;;36.91;35.21;97703.89;1694705;83;20245;-86
2022/06/30 11:04:50;;;;;;;;;;;;;;;36.27;34.97;97708.50;1686326;83;21365;-86
2022/06/30 11:07:23;;;;;;;;;;;;;;;35.90;36.61;97695.38;1698707;83;20162;-85
2022/06/30 11:09:57;;;;;;;;;;;;;;;35.03;36.48;97694.58;1679196;84;20217;-85
2022/06/30 11:12:27;;;;;;;;;;;;;;;35.84;36.19;97697.33;1693512;83;20183;-86
2022/06/30 11:14:54;;;;;;;;;;;;;;;36.42;34.80;97693.28;1672494;83;20635;-86
2022/06/30 11:17:25;;;;;;;;;;;;;;;36.04;35.69;97689.20;1699456;83;21200;-86
2022/06/30 11:20:05;;;;;;;;;;;;;;;35.38;35.92;97688.23;1690691;84;20468;-85
2022/06/30 11:22:31;;;;;;;;;;;;;;;35.22;36.42;97684.97;1685373;83;20268;-86
2022/06/30 11:24:58;;;;;;;;;;;;;;;37.01;33.41;97682.94;1689738;84;20206;-86
2022/06/30 11:27:25;;;;;;;;;;;;;;;38.61;28.55;97678.80;1691444;83;20471;-86
2022/06/30 11:29:58;;;;;;;;;;;;;;;40.39;28.10;97673.31;1690272;83;21054;-86
2022/06/30 11:32:24;;;;;;;;;;;;;;;39.88;26.98;97682.12;1683079;83;20176;-86
2022/06/30 11:34:50;;;;;;;;;;;;;;;40.68;25.99;97676.02;1694374;83;20200;-86
2022/06/30 11:37:26;;;;;;;;;;;;;;;40.32;25.30;97675.89;1694845;83;20310;-86
2022/06/30 11:40:04;;;;;;;;;;;;;;;40.17;25.26;97670.09;1692954;83;20586;-86
2022/06/30 11:42:30;;;;;;;;;;;;;;;39.23;25.01;97672.45;1693499;83;21926;-86
2022/06/30 11:44:56;;;;;;;;;;;;;;;36.96;28.39;97672.23;1691322;84;20362;-90
2022/06/30 11:47:23;;;;;;;;;;;;;;;36.47;30.16;97666.49;1695546;84;20257;-90
2022/06/30 11:49:54;;;;;;;;;;;;;;;35.24;31.41;97669.19;1693140;83;20476;-89
2022/06/30 11:52:24;;;;;;;;;;;;;;;34.75;32.47;97670.92;1692985;84;20241;-85
2022/06/30 11:55:04;;;;;;;;;;;;;;;34.35;34.16;97669.72;1696182;84;21310;-85
2022/06/30 11:57:34;;;;;;;;;;;;;;;34.13;35.54;97661.14;1695312;83;20464;-85
2022/06/30 12:00:08;;;;;;;;;;;;;;;34.13;35.19;97661.92;1693838;84;20836;-85
2022/06/30 12:02:34;;;;;;;;;;;;;;;36.04;32.31;97656.79;1691453;82;20183;-85
2022/06/30 12:05:01;;;;;;;;;;;;;;;37.59;29.83;97646.03;1692966;83;20188;-86
2022/06/30 12:07:27;;;;;;;;;;;;;;;38.55;28.09;97640.33;1693880;83;21107;-86
2022/06/30 12:09:54;;;;;;;;;;;;;;;39.54;26.95;97639.52;1693807;83;20175;-86
2022/06/30 12:12:28;;;;;;;;;;;;;;;40.19;26.83;97635.70;1694722;83;20636;-86
2022/06/30 12:14:56;;;;;;;;;;;;;;;39.60;26.33;97639.81;1691192;83;20287;-86
2022/06/30 12:17:22;;;;;;;;;;;;;;;39.88;25.78;97633.27;1688183;83;20222;-86
2022/06/30 12:19:48;;;;;;;;;;;;;;;40.12;25.69;97634.66;1692262;83;21024;-86
2022/06/30 12:22:14;;;;;;;;;;;;;;;40.41;24.83;97623.16;1689569;83;20248;-86
2022/06/30 12:24:41;;;;;;;;;;;;;;;40.71;24.95;97626.14;1694459;84;20195;-86
2022/06/30 12:27:07;;;;;;;;;;;;;;;39.28;26.23;97625.84;1692143;84;20743;-86
2022/06/30 12:29:33;;;;;;;;;;;;;;;39.54;25.77;97630.37;1689111;83;20250;-86
2022/06/30 12:32:02;;;;;;;;;;;;;;;38.88;25.75;97629.81;1691192;84;21068;-86
2022/06/30 12:34:28;;;;;;;;;;;;;;;39.10;25.67;97630.18;1682673;83;20176;-86
2022/06/30 12:36:59;;;;;;;;;;;;;;;39.55;25.80;97639.03;1691894;83;20209;-86
2022/06/30 12:39:25;;;;;;;;;;;;;;;40.24;24.31;97646.98;1694188;83;20217;-86
2022/06/30 12:42:03;;;;;;;;;;;;;;;41.35;23.97;97650.88;1685624;83;20735;-86
2022/06/30 12:44:34;;;;;;;;;;;;;;;40.22;24.24;97645.28;1693578;84;21957;-86
2022/06/30 12:47:07;;;;;;;;;;;;;;;39.43;24.86;97637.24;1697700;83;20285;-86
2022/06/30 12:49:33;;;;;;;;;;;;;;;38.24;26.28;97630.03;1691742;84;20178;-86
2022/06/30 12:51:59;;;;;;;;;;;;;;;37.97;27.91;97622.98;1690336;83;20252;-86
2022/06/30 12:54:25;;;;;;;;;;;;;;;37.50;27.08;97608.67;1694407;83;20182;-85